St George Airport St George US
ICAO: PAPB
IATA:
Category: Medium
Scheduled Services:

Elevation: 125 ft
TransAlt. 18000 ft.

Airport Communications:
ASOS:135.45
ANCHORAGE CNTR:119.1
CTAF:122.8
KENAI RDO:122.5

PAPB Zoom In..

If you have problems with the map follow the link
https://www.worldairports.se/pages/airport.php?
ICAO=PAPB

Runways:

(A) RW 11 length 4982 ft width 150 ft
ILS 110.10 / hdg 107

(B) RW 29 length 4982 ft width 150 ft
---- / hdg 287

Location; PAPB
Day. 29 / Time. 11.39 Zulu
* Altimeter: 29.67
* Temperature: 1/° c. 33.8°f.
* Wind from: 350° Speed 30 kn with Gusts up to 37 kn.
Dewpoint: V5° c.
Visibility: 2 m.
Clouds: Broken 2600 ft.
Clouds: Overcast 3300 ft.
Conditions: Light Snow.

PAPB 291139Z AUTO 35030G37KT 2 1/2SM -SN BKN026 OVC033 M09/M14 A2967 RMK AO2 PK WND 34045/1124 VIS 1 1/4V5 P0000 T10941139 TSNO $


Wind From 350°
Speed 30 kn.

 
 
jpsmedia worldairports.se 2020   terms of use